Time;durP1;ratioP1;P1;durP2;ratioP2;P2;SDS_P1;SDS_P2;PMS_P1;PMS_P2;Temp;Humidity;BMP_temperature;BMP_pressure;BME280_temperature;BME280_humidity;BME280_pressure;Samples;Min_cycle;Max_cycle;Signal;HPM_P1;HPM_P2
2022/08/21 00:00:21;;;;;;;;;;;15.80;99.90;;;;;;5051971;28;19970;-68
2022/08/21 00:02:49;;;;;;;;;;;15.70;99.90;;;;;;5051755;28;19974;-68
2022/08/21 00:05:16;;;;;;;;;;;15.70;99.90;;;;;;5052273;28;19929;-68
2022/08/21 00:07:43;;;;;;;;;;;15.70;99.90;;;;;;5051424;28;19924;-68
2022/08/21 00:10:11;;;;;;;;;;;15.70;99.90;;;;;;5051659;28;19924;-68
2022/08/21 00:12:38;;;;;;;;;;;15.60;99.90;;;;;;5051777;28;20347;-68
2022/08/21 00:15:08;;;;;;;;;;;15.60;99.90;;;;;;5051957;28;19982;-68
2022/08/21 00:17:35;;;;;;;;;;;15.50;99.90;;;;;;5051600;28;19933;-68
2022/08/21 00:20:02;;;;;;;;;;;15.50;99.90;;;;;;5051264;28;20423;-68
2022/08/21 00:22:29;;;;;;;;;;;15.50;99.90;;;;;;5051446;28;19974;-68
2022/08/21 00:24:56;;;;;;;;;;;15.50;99.90;;;;;;5050600;28;19928;-68
2022/08/21 00:27:23;;;;;;;;;;;15.40;99.90;;;;;;5049801;28;19975;-68
2022/08/21 00:29:49;;;;;;;;;;;15.40;99.90;;;;;;5050746;28;20336;-68
2022/08/21 00:32:22;;;;;;;;;;;15.40;99.90;;;;;;5052497;28;19932;-68
2022/08/21 00:34:49;;;;;;;;;;;15.30;99.90;;;;;;5044695;28;19925;-68
2022/08/21 00:37:15;;;;;;;;;;;15.30;99.90;;;;;;5051824;28;19971;-68
2022/08/21 00:39:42;;;;;;;;;;;15.30;99.90;;;;;;5050961;28;19925;-67
2022/08/21 00:42:09;;;;;;;;;;;15.30;99.90;;;;;;5051154;28;19924;-67
2022/08/21 00:44:36;;;;;;;;;;;15.30;99.90;;;;;;5051391;28;19924;-68
2022/08/21 00:47:03;;;;;;;;;;;15.20;99.90;;;;;;5051262;28;20411;-68
2022/08/21 00:49:31;;;;;;;;;;;15.20;99.90;;;;;;5050296;28;19925;-68
2022/08/21 00:52:00;;;;;;;;;;;15.20;99.90;;;;;;5050326;28;19925;-69
2022/08/21 00:54:28;;;;;;;;;;;15.20;99.90;;;;;;5050448;28;19928;-69
2022/08/21 00:56:56;;;;;;;;;;;15.10;99.90;;;;;;5050578;28;19930;-69
2022/08/21 00:59:24;;;;;;;;;;;15.10;99.90;;;;;;5050021;28;20458;-69
2022/08/21 01:01:51;;;;;;;;;;;15.10;99.90;;;;;;5047244;28;19928;-69
2022/08/21 01:04:18;;;;;;;;;;;15.10;99.90;;;;;;5049263;28;19964;-68
2022/08/21 01:06:47;;;;;;;;;;;15.00;99.90;;;;;;5044138;28;19932;-68
2022/08/21 01:09:14;;;;;;;;;;;15.00;99.90;;;;;;5050559;28;19928;-69
2022/08/21 01:11:42;;;;;;;;;;;14.90;99.90;;;;;;5050729;28;19929;-68
2022/08/21 01:14:10;;;;;;;;;;;14.90;99.90;;;;;;5050790;28;19956;-68
2022/08/21 01:16:37;;;;;;;;;;;14.90;99.90;;;;;;5050520;28;20016;-68
2022/08/21 01:19:03;;;;;;;;;;;14.90;99.90;;;;;;5050233;28;19925;-69
2022/08/21 01:21:33;;;;;;;;;;;14.90;99.90;;;;;;5050396;28;19931;-69
2022/08/21 01:24:00;;;;;;;;;;;14.90;99.90;;;;;;5050575;28;20027;-69
2022/08/21 01:26:28;;;;;;;;;;;14.90;99.90;;;;;;5050521;28;20157;-69
2022/08/21 01:28:57;;;;;;;;;;;14.90;99.90;;;;;;5049663;28;19932;-69
2022/08/21 01:31:25;;;;;;;;;;;14.90;99.90;;;;;;5050300;28;19924;-69
2022/08/21 01:33:52;;;;;;;;;;;14.90;99.90;;;;;;5048214;28;19925;-69
2022/08/21 01:36:19;;;;;;;;;;;14.80;99.90;;;;;;5050363;28;19924;-69
2022/08/21 01:38:47;;;;;;;;;;;14.80;99.90;;;;;;5044504;28;19979;-68
2022/08/21 01:41:14;;;;;;;;;;;14.70;99.90;;;;;;5050012;28;19990;-69
2022/08/21 01:43:42;;;;;;;;;;;14.70;99.90;;;;;;5050417;28;19968;-69
2022/08/21 01:46:09;;;;;;;;;;;14.70;99.90;;;;;;5049718;28;19951;-69
2022/08/21 01:48:36;;;;;;;;;;;14.70;99.90;;;;;;5043270;28;20385;-68
2022/08/21 01:51:03;;;;;;;;;;;14.60;99.90;;;;;;5049699;28;19932;-68
2022/08/21 01:53:30;;;;;;;;;;;14.60;99.90;;;;;;5047908;28;19925;-69
2022/08/21 01:55:58;;;;;;;;;;;14.60;99.90;;;;;;5048024;28;19929;-68
2022/08/21 01:58:25;;;;;;;;;;;14.50;99.90;;;;;;5049630;28;20293;-69
2022/08/21 02:00:52;;;;;;;;;;;14.50;99.90;;;;;;5048227;28;19932;-67
2022/08/21 02:03:20;;;;;;;;;;;14.50;99.90;;;;;;5049419;28;20376;-69
2022/08/21 02:05:47;;;;;;;;;;;14.40;99.90;;;;;;5046518;28;19996;-69
2022/08/21 02:08:13;;;;;;;;;;;14.40;99.90;;;;;;5049431;28;20407;-69
2022/08/21 02:10:41;;;;;;;;;;;14.30;99.90;;;;;;5049698;28;19933;-68
2022/08/21 02:13:09;;;;;;;;;;;14.20;99.90;;;;;;5044445;28;19984;-69
2022/08/21 02:15:36;;;;;;;;;;;14.20;99.90;;;;;;5047845;28;19928;-68
2022/08/21 02:18:03;;;;;;;;;;;14.10;99.90;;;;;;5045669;28;20308;-68
2022/08/21 02:20:31;;;;;;;;;;;14.10;99.90;;;;;;5048075;28;19928;-68
2022/08/21 02:22:58;;;;;;;;;;;14.10;99.90;;;;;;5049525;28;19975;-67
2022/08/21 02:25:26;;;;;;;;;;;14.00;99.90;;;;;;5049598;28;19974;-68
2022/08/21 02:27:53;;;;;;;;;;;14.00;99.90;;;;;;5049111;28;19925;-68
2022/08/21 02:30:23;;;;;;;;;;;13.90;99.90;;;;;;5048560;28;20411;-68
2022/08/21 02:32:49;;;;;;;;;;;13.90;99.90;;;;;;5046190;28;19933;-68
2022/08/21 02:35:16;;;;;;;;;;;13.90;99.90;;;;;;5045625;28;20389;-69
2022/08/21 02:37:44;;;;;;;;;;;13.90;99.90;;;;;;5049839;28;20388;-68
2022/08/21 02:40:11;;;;;;;;;;;13.80;99.90;;;;;;5050475;28;19932;-68
2022/08/21 02:42:38;;;;;;;;;;;13.80;99.90;;;;;;5050405;28;20375;-68
2022/08/21 02:45:05;;;;;;;;;;;13.80;99.90;;;;;;5050404;28;20422;-69
2022/08/21 02:47:33;;;;;;;;;;;13.80;99.90;;;;;;5050339;28;19940;-68
2022/08/21 02:50:00;;;;;;;;;;;13.80;99.90;;;;;;5050121;28;19974;-68
2022/08/21 02:52:27;;;;;;;;;;;13.80;99.90;;;;;;5042960;28;19929;-68
2022/08/21 02:54:54;;;;;;;;;;;13.70;99.90;;;;;;5050260;28;19929;-68
2022/08/21 02:57:21;;;;;;;;;;;13.70;99.90;;;;;;5048730;28;19945;-67
2022/08/21 02:59:47;;;;;;;;;;;13.80;99.90;;;;;;5043462;28;20190;-68
2022/08/21 03:02:14;;;;;;;;;;;13.80;99.90;;;;;;5041379;28;19986;-67
2022/08/21 03:04:42;;;;;;;;;;;13.80;99.90;;;;;;5050426;28;19925;-67
2022/08/21 03:07:09;;;;;;;;;;;13.80;99.90;;;;;;5050404;28;19925;-67
2022/08/21 03:09:36;;;;;;;;;;;13.80;99.90;;;;;;5045404;28;19933;-68
2022/08/21 03:12:03;;;;;;;;;;;13.80;99.90;;;;;;5050353;28;19975;-68
2022/08/21 03:14:30;;;;;;;;;;;13.80;99.90;;;;;;5049440;28;20339;-68
2022/08/21 03:16:56;;;;;;;;;;;13.90;99.90;;;;;;5046919;28;19925;-68
2022/08/21 03:19:23;;;;;;;;;;;13.90;99.90;;;;;;5044235;28;19929;-68
2022/08/21 03:21:51;;;;;;;;;;;13.80;99.90;;;;;;5050144;28;20358;-67
2022/08/21 03:24:18;;;;;;;;;;;13.80;99.90;;;;;;5040864;28;19929;-67
2022/08/21 03:26:45;;;;;;;;;;;13.80;99.90;;;;;;5058760;28;19975;-68
2022/08/21 03:29:11;;;;;;;;;;;13.80;99.90;;;;;;5062321;22;19979;-68
2022/08/21 03:31:40;;;;;;;;;;;13.80;99.90;;;;;;5030397;28;19987;-69
2022/08/21 03:34:06;;;;;;;;;;;13.80;99.90;;;;;;5045937;28;19984;-69
2022/08/21 03:36:33;;;;;;;;;;;13.70;99.90;;;;;;5044593;28;19960;-68
2022/08/21 03:39:01;;;;;;;;;;;13.70;99.90;;;;;;5024980;28;19929;-69
2022/08/21 03:41:28;;;;;;;;;;;13.60;99.90;;;;;;5021373;28;19980;-70
2022/08/21 03:43:54;;;;;;;;;;;13.50;99.90;;;;;;5026175;28;19972;-69
2022/08/21 03:46:21;;;;;;;;;;;13.50;99.90;;;;;;5004714;28;19934;-70
2022/08/21 03:48:48;;;;;;;;;;;13.50;99.90;;;;;;5026255;28;19930;-67
2022/08/21 03:51:15;;;;;;;;;;;13.50;99.90;;;;;;5021733;28;20409;-70
2022/08/21 03:53:42;;;;;;;;;;;13.50;99.90;;;;;;5005947;28;19932;-70
2022/08/21 03:56:10;;;;;;;;;;;13.40;99.90;;;;;;5023520;28;19926;-69
2022/08/21 03:58:38;;;;;;;;;;;13.40;99.90;;;;;;5009196;28;20290;-70
2022/08/21 04:01:06;;;;;;;;;;;13.30;99.90;;;;;;5024216;28;19926;-70
2022/08/21 04:03:33;;;;;;;;;;;13.30;99.90;;;;;;5034516;28;19933;-70
2022/08/21 04:06:00;;;;;;;;;;;13.30;99.90;;;;;;5033591;28;19926;-70
2022/08/21 04:08:27;;;;;;;;;;;13.30;99.90;;;;;;5018947;28;19948;-69
2022/08/21 04:10:55;;;;;;;;;;;13.30;99.90;;;;;;5031948;28;19930;-70
2022/08/21 04:13:23;;;;;;;;;;;13.30;99.90;;;;;;5006843;28;20381;-70
2022/08/21 04:15:50;;;;;;;;;;;13.30;99.90;;;;;;5009213;28;20016;-71
2022/08/21 04:18:17;;;;;;;;;;;13.30;99.90;;;;;;5020411;28;19925;-70
2022/08/21 04:20:45;;;;;;;;;;;13.30;99.90;;;;;;5009069;28;19956;-70
2022/08/21 04:23:12;;;;;;;;;;;13.30;99.90;;;;;;5029484;28;19933;-70
2022/08/21 04:25:39;;;;;;;;;;;13.30;99.90;;;;;;5031440;28;19926;-71
2022/08/21 04:28:06;;;;;;;;;;;13.40;99.90;;;;;;5003559;28;19925;-71
2022/08/21 04:30:34;;;;;;;;;;;13.40;99.90;;;;;;5015355;28;19925;-72
2022/08/21 04:33:03;;;;;;;;;;;13.50;99.90;;;;;;5005032;28;19937;-71
2022/08/21 04:35:30;;;;;;;;;;;13.50;99.90;;;;;;5008789;28;19932;-67
2022/08/21 04:37:57;;;;;;;;;;;13.50;99.90;;;;;;5030767;28;19926;-67
2022/08/21 04:40:25;;;;;;;;;;;13.40;99.90;;;;;;5007676;28;19978;-69
2022/08/21 04:42:52;;;;;;;;;;;13.50;99.90;;;;;;5006208;28;19931;-69
2022/08/21 04:45:21;;;;;;;;;;;13.50;99.90;;;;;;5020802;28;19925;-69
2022/08/21 04:47:53;;;;;;;;;;;13.50;99.90;;;;;;5027741;28;20392;-69
2022/08/21 04:50:20;;;;;;;;;;;13.50;99.90;;;;;;5014387;28;19925;-70
2022/08/21 04:53:04;;;;;;;;;;;13.50;99.90;;;;;;5009780;28;19933;-69
2022/08/21 04:55:31;;;;;;;;;;;13.50;99.90;;;;;;5026714;28;19933;-69
2022/08/21 04:57:58;;;;;;;;;;;13.60;99.90;;;;;;5008379;28;19929;-69
2022/08/21 05:00:25;;;;;;;;;;;13.60;99.90;;;;;;5027185;28;19929;-70
2022/08/21 05:02:56;;;;;;;;;;;13.60;99.90;;;;;;5008697;28;20477;-69
2022/08/21 05:05:24;;;;;;;;;;;13.50;99.90;;;;;;5008469;28;21582;-70
2022/08/21 05:07:52;;;;;;;;;;;13.50;99.90;;;;;;5027267;28;19929;-69
2022/08/21 05:10:19;;;;;;;;;;;13.60;99.90;;;;;;5028814;28;19930;-70
2022/08/21 05:12:46;;;;;;;;;;;13.60;99.90;;;;;;5026816;28;19929;-69
2022/08/21 05:15:13;;;;;;;;;;;13.60;99.90;;;;;;5027473;28;19933;-71
2022/08/21 05:17:40;;;;;;;;;;;13.60;99.90;;;;;;5026135;28;20302;-69
2022/08/21 05:20:09;;;;;;;;;;;13.70;99.90;;;;;;5011735;28;19926;-70
2022/08/21 05:22:36;;;;;;;;;;;13.80;99.90;;;;;;5010741;28;19926;-69
2022/08/21 05:25:04;;;;;;;;;;;13.80;99.90;;;;;;5010437;28;19997;-69
2022/08/21 05:27:31;;;;;;;;;;;13.80;99.90;;;;;;5010333;28;20343;-68
2022/08/21 05:29:58;;;;;;;;;;;13.80;99.90;;;;;;5010054;28;20405;-69
2022/08/21 05:32:27;;;;;;;;;;;13.80;99.90;;;;;;5028864;28;19926;-70
2022/08/21 05:34:54;;;;;;;;;;;13.90;99.90;;;;;;5010797;28;19933;-71
2022/08/21 05:37:22;;;;;;;;;;;13.90;99.90;;;;;;5028277;28;20433;-69
2022/08/21 05:39:49;;;;;;;;;;;14.00;99.90;;;;;;5010330;28;19933;-69
2022/08/21 05:42:16;;;;;;;;;;;14.10;99.90;;;;;;5008483;28;19929;-68
2022/08/21 05:44:43;;;;;;;;;;;14.20;99.90;;;;;;5014353;28;19925;-67
2022/08/21 05:47:11;;;;;;;;;;;14.20;99.90;;;;;;5026634;28;20027;-67
2022/08/21 05:49:38;;;;;;;;;;;14.30;99.90;;;;;;5010169;28;19933;-67
2022/08/21 05:52:05;;;;;;;;;;;14.50;99.90;;;;;;5011475;28;19925;-68
2022/08/21 05:54:33;;;;;;;;;;;14.60;99.90;;;;;;5023180;28;19929;-68
2022/08/21 05:57:00;;;;;;;;;;;14.60;99.90;;;;;;5010016;28;19933;-68
2022/08/21 05:59:27;;;;;;;;;;;14.70;99.90;;;;;;5026138;28;20393;-68
2022/08/21 06:01:54;;;;;;;;;;;14.80;99.90;;;;;;5007138;28;19957;-69
2022/08/21 06:04:21;;;;;;;;;;;14.90;99.90;;;;;;5025449;28;19976;-67
2022/08/21 06:06:48;;;;;;;;;;;15.10;99.90;;;;;;5012029;28;19925;-68
2022/08/21 06:09:15;;;;;;;;;;;15.20;99.90;;;;;;5004642;28;20016;-68
2022/08/21 06:11:43;;;;;;;;;;;15.30;99.90;;;;;;5025745;28;19925;-70
2022/08/21 06:14:10;;;;;;;;;;;15.40;99.90;;;;;;5029149;28;19926;-68
2022/08/21 06:16:37;;;;;;;;;;;15.50;99.90;;;;;;5023927;28;19925;-68
2022/08/21 06:19:03;;;;;;;;;;;15.60;99.90;;;;;;5003708;28;19929;-67
2022/08/21 06:21:30;;;;;;;;;;;15.70;99.90;;;;;;5009191;28;19932;-67
2022/08/21 06:23:57;;;;;;;;;;;15.80;99.90;;;;;;5018955;28;19932;-70
2022/08/21 06:26:24;;;;;;;;;;;15.90;99.90;;;;;;5009525;28;19930;-67
2022/08/21 06:28:53;;;;;;;;;;;16.00;99.90;;;;;;5006961;28;19932;-67
2022/08/21 06:31:21;;;;;;;;;;;16.10;99.90;;;;;;5013250;28;19987;-66
2022/08/21 06:33:48;;;;;;;;;;;16.20;99.90;;;;;;5009843;28;20125;-67
2022/08/21 06:36:15;;;;;;;;;;;16.40;99.90;;;;;;5015819;28;19925;-68
2022/08/21 06:38:42;;;;;;;;;;;16.50;99.90;;;;;;5006905;28;19988;-68
2022/08/21 06:41:09;;;;;;;;;;;16.70;99.90;;;;;;5020405;28;19930;-68
2022/08/21 06:43:36;;;;;;;;;;;16.80;99.90;;;;;;5003078;28;19945;-68
2022/08/21 06:46:05;;;;;;;;;;;16.80;99.90;;;;;;5025594;28;19926;-68
2022/08/21 06:48:33;;;;;;;;;;;16.90;99.90;;;;;;5022916;28;20424;-68
2022/08/21 06:51:00;;;;;;;;;;;17.00;99.90;;;;;;5023252;28;20031;-64
2022/08/21 06:53:27;;;;;;;;;;;17.20;99.90;;;;;;5030409;28;19953;-67
2022/08/21 06:55:53;;;;;;;;;;;17.30;99.90;;;;;;5005530;28;19933;-66
2022/08/21 06:58:20;;;;;;;;;;;17.40;99.90;;;;;;5025196;28;19930;-68
2022/08/21 07:00:49;;;;;;;;;;;17.50;99.90;;;;;;5025514;28;19925;-72
2022/08/21 07:03:25;;;;;;;;;;;17.60;99.90;;;;;;5024649;28;19944;-67
2022/08/21 07:05:52;;;;;;;;;;;17.60;99.90;;;;;;5031059;28;19925;-68
2022/08/21 07:08:19;;;;;;;;;;;17.70;99.90;;;;;;5031134;28;19925;-69
2022/08/21 07:10:46;;;;;;;;;;;17.90;99.90;;;;;;5033896;28;19925;-69
2022/08/21 07:13:13;;;;;;;;;;;17.90;99.90;;;;;;5012827;28;19925;-68
2022/08/21 07:15:40;;;;;;;;;;;17.90;99.90;;;;;;5008585;28;19933;-68
2022/08/21 07:18:07;;;;;;;;;;;18.00;99.90;;;;;;5024690;28;19929;-69
2022/08/21 07:20:35;;;;;;;;;;;18.00;99.90;;;;;;5029298;28;19949;-68
2022/08/21 07:23:04;;;;;;;;;;;18.00;99.90;;;;;;5006469;28;19930;-68
2022/08/21 07:25:31;;;;;;;;;;;18.00;99.90;;;;;;5028942;28;19934;-67
2022/08/21 07:27:57;;;;;;;;;;;18.10;99.90;;;;;;5004054;28;19926;-68
2022/08/21 07:30:24;;;;;;;;;;;18.20;99.90;;;;;;5032915;28;19925;-68
2022/08/21 07:32:51;;;;;;;;;;;18.30;99.90;;;;;;5010308;28;19925;-68
2022/08/21 07:35:18;;;;;;;;;;;18.40;99.90;;;;;;5013921;28;19933;-68
2022/08/21 07:37:47;;;;;;;;;;;18.50;99.90;;;;;;5023729;28;19937;-70
2022/08/21 07:40:15;;;;;;;;;;;18.70;99.90;;;;;;5015187;28;20332;-67
2022/08/21 07:42:42;;;;;;;;;;;18.60;99.90;;;;;;5027594;28;19925;-70
2022/08/21 07:45:09;;;;;;;;;;;18.60;99.90;;;;;;5002675;28;20583;-68
2022/08/21 07:47:36;;;;;;;;;;;18.60;99.90;;;;;;5012771;28;19980;-71
2022/08/21 07:50:03;;;;;;;;;;;18.70;99.90;;;;;;5031115;28;19933;-69
2022/08/21 07:52:30;;;;;;;;;;;18.80;99.90;;;;;;5008688;28;19926;-70
2022/08/21 07:54:58;;;;;;;;;;;18.90;99.90;;;;;;5002112;28;19930;-70
2022/08/21 07:57:25;;;;;;;;;;;19.00;99.90;;;;;;5029347;28;19933;-67
2022/08/21 07:59:52;;;;;;;;;;;19.10;99.90;;;;;;5025670;28;19933;-68
2022/08/21 08:02:22;;;;;;;;;;;19.20;99.90;;;;;;5027852;28;19925;-68
2022/08/21 08:04:50;;;;;;;;;;;19.30;99.90;;;;;;5029432;28;19933;-69
2022/08/21 08:07:17;;;;;;;;;;;19.40;99.90;;;;;;5006434;28;19925;-68
2022/08/21 08:09:44;;;;;;;;;;;19.50;99.90;;;;;;5021054;28;19929;-68
2022/08/21 08:12:12;;;;;;;;;;;19.70;99.90;;;;;;5020688;28;19933;-68
2022/08/21 08:14:39;;;;;;;;;;;19.90;99.90;;;;;;5018046;28;19926;-68
2022/08/21 08:17:05;;;;;;;;;;;19.80;99.90;;;;;;5003111;28;19926;-70
2022/08/21 08:19:32;;;;;;;;;;;19.80;99.90;;;;;;5017686;28;19929;-68
2022/08/21 08:21:59;;;;;;;;;;;19.80;99.90;;;;;;5008883;28;19937;-67
2022/08/21 08:24:26;;;;;;;;;;;19.90;99.90;;;;;;5030592;28;19938;-68
2022/08/21 08:26:53;;;;;;;;;;;19.90;99.90;;;;;;5008164;28;19926;-67
2022/08/21 08:29:22;;;;;;;;;;;19.90;99.90;;;;;;5015614;28;19931;-67
2022/08/21 08:31:48;;;;;;;;;;;19.90;99.90;;;;;;5017065;28;19930;-67
2022/08/21 08:34:15;;;;;;;;;;;20.00;99.90;;;;;;5028120;28;19926;-68
2022/08/21 08:36:42;;;;;;;;;;;20.00;99.90;;;;;;5017898;28;19926;-68
2022/08/21 08:39:09;;;;;;;;;;;20.10;99.90;;;;;;5022119;28;19925;-67
2022/08/21 08:41:37;;;;;;;;;;;20.10;99.90;;;;;;5018942;28;19932;-67
2022/08/21 08:44:05;;;;;;;;;;;20.30;99.90;;;;;;5002224;28;19945;-67
2022/08/21 08:46:36;;;;;;;;;;;20.40;99.90;;;;;;5032052;28;19933;-68
2022/08/21 08:49:07;;;;;;;;;;;20.40;99.90;;;;;;5021269;28;19980;-68
2022/08/21 08:51:37;;;;;;;;;;;20.40;99.90;;;;;;5031114;28;20390;-69
2022/08/21 08:54:08;;;;;;;;;;;20.50;99.90;;;;;;5022985;28;19926;-69
2022/08/21 08:56:35;;;;;;;;;;;20.60;99.90;;;;;;5030298;28;20345;-68
2022/08/21 08:59:06;;;;;;;;;;;20.60;99.90;;;;;;5023035;28;19925;-69
2022/08/21 09:01:35;;;;;;;;;;;20.60;99.90;;;;;;5013714;28;20011;-68
2022/08/21 09:04:01;;;;;;;;;;;20.60;99.90;;;;;;5005663;28;19949;-68
2022/08/21 09:06:49;;;;;;;;;;;20.60;99.90;;;;;;5005129;28;19926;-69
2022/08/21 09:09:21;;;;;;;;;;;20.80;99.90;;;;;;5003835;28;19925;-69
2022/08/21 09:11:51;;;;;;;;;;;21.00;99.90;;;;;;5028167;28;19925;-68
2022/08/21 09:14:26;;;;;;;;;;;21.00;99.90;;;;;;5019000;28;19930;-70
2022/08/21 09:16:56;;;;;;;;;;;21.10;99.90;;;;;;5000164;28;19980;-69
2022/08/21 09:19:29;;;;;;;;;;;21.10;99.90;;;;;;5015383;28;19932;-69
2022/08/21 09:22:00;;;;;;;;;;;21.20;99.90;;;;;;5021158;28;19961;-68
2022/08/21 09:24:31;;;;;;;;;;;21.20;99.90;;;;;;5002199;28;19933;-68
2022/08/21 09:27:01;;;;;;;;;;;21.20;99.90;;;;;;5020331;28;20020;-68
2022/08/21 09:29:29;;;;;;;;;;;21.30;99.90;;;;;;5015567;28;19941;-70
2022/08/21 09:31:57;;;;;;;;;;;21.40;99.90;;;;;;5018425;28;20012;-70
2022/08/21 09:34:25;;;;;;;;;;;21.50;99.90;;;;;;5003378;28;19979;-69
2022/08/21 09:36:52;;;;;;;;;;;21.60;99.90;;;;;;5021456;28;19933;-71
2022/08/21 09:39:23;;;;;;;;;;;21.70;99.90;;;;;;5033086;28;19925;-68
2022/08/21 09:41:56;;;;;;;;;;;21.50;99.90;;;;;;5021834;28;19930;-68
2022/08/21 09:44:26;;;;;;;;;;;21.70;99.90;;;;;;5008274;28;19940;-70
2022/08/21 09:46:53;;;;;;;;;;;21.90;99.90;;;;;;5002912;28;19930;-68
2022/08/21 09:49:29;;;;;;;;;;;22.10;99.90;;;;;;5033309;28;20471;-69
2022/08/21 09:51:56;;;;;;;;;;;22.10;99.90;;;;;;5002998;28;19926;-69
2022/08/21 09:54:27;;;;;;;;;;;22.30;99.90;;;;;;5025205;28;19925;-68
2022/08/21 09:59:40;;;;;;;;;;;22.50;99.90;;;;;;5025198;28;19929;-68
2022/08/21 10:02:20;;;;;;;;;;;22.40;99.90;;;;;;5006220;28;19977;-67
2022/08/21 10:04:52;;;;;;;;;;;22.20;99.90;;;;;;4999335;28;20292;-68
2022/08/21 10:07:21;;;;;;;;;;;22.40;99.90;;;;;;5029343;28;19929;-68
2022/08/21 10:09:58;;;;;;;;;;;22.50;99.90;;;;;;5031254;28;19927;-68
2022/08/21 10:12:29;;;;;;;;;;;22.60;99.90;;;;;;5015476;28;19934;-69
2022/08/21 10:15:00;;;;;;;;;;;23.00;99.90;;;;;;5029093;28;19926;-70
2022/08/21 10:17:31;;;;;;;;;;;23.00;99.90;;;;;;5027136;28;19929;-68
2022/08/21 10:20:03;;;;;;;;;;;23.00;99.90;;;;;;4998571;28;20396;-68
2022/08/21 10:22:35;;;;;;;;;;;22.70;99.90;;;;;;5016073;28;19926;-69
2022/08/21 10:25:06;;;;;;;;;;;23.00;99.90;;;;;;4999054;28;19979;-70
2022/08/21 10:27:37;;;;;;;;;;;23.10;99.90;;;;;;5024993;28;19933;-67
2022/08/21 10:30:06;;;;;;;;;;;23.30;99.90;;;;;;4944997;28;1741871;-68
2022/08/21 10:32:38;;;;;;;;;;;23.40;99.90;;;;;;5028574;28;20454;-68
2022/08/21 10:35:11;;;;;;;;;;;23.40;99.90;;;;;;5027562;28;19925;-68
2022/08/21 10:37:42;;;;;;;;;;;23.50;99.90;;;;;;5011865;28;19926;-68
2022/08/21 10:40:15;;;;;;;;;;;23.60;99.90;;;;;;5000838;28;19936;-68
2022/08/21 10:42:48;;;;;;;;;;;23.70;99.90;;;;;;5013628;28;19926;-69
2022/08/21 10:45:21;;;;;;;;;;;23.50;99.90;;;;;;5004880;28;19929;-68
2022/08/21 10:47:49;;;;;;;;;;;23.40;99.90;;;;;;5027932;28;20304;-68
2022/08/21 10:50:26;;;;;;;;;;;23.60;99.90;;;;;;5022400;28;20028;-69
2022/08/21 10:53:10;;;;;;;;;;;23.80;99.90;;;;;;5000728;28;20408;-69
2022/08/21 10:55:40;;;;;;;;;;;24.10;99.90;;;;;;5031391;28;19932;-69
2022/08/21 10:58:10;;;;;;;;;;;24.10;99.90;;;;;;5029049;28;19929;-68
2022/08/21 11:00:41;;;;;;;;;;;23.90;99.90;;;;;;5002065;28;19925;-68
2022/08/21 11:03:11;;;;;;;;;;;24.10;99.90;;;;;;5008843;28;19929;-68
2022/08/21 11:05:41;;;;;;;;;;;24.10;99.90;;;;;;5024810;28;20024;-68
2022/08/21 11:08:10;;;;;;;;;;;24.40;99.90;;;;;;5026397;28;19930;-68
2022/08/21 11:10:41;;;;;;;;;;;24.80;99.90;;;;;;5011574;28;19926;-69
2022/08/21 11:13:12;;;;;;;;;;;24.80;99.90;;;;;;5009978;28;19925;-69
2022/08/21 11:15:44;;;;;;;;;;;24.70;99.90;;;;;;5023721;28;19926;-68
2022/08/21 11:18:16;;;;;;;;;;;25.00;99.90;;;;;;5030237;28;19925;-68
2022/08/21 11:20:52;;;;;;;;;;;25.00;99.90;;;;;;5014527;28;19957;-68
2022/08/21 11:23:22;;;;;;;;;;;25.10;99.90;;;;;;5028504;28;19964;-68
2022/08/21 11:25:51;;;;;;;;;;;25.00;99.90;;;;;;5026217;28;20367;-69
2022/08/21 11:28:21;;;;;;;;;;;25.10;99.90;;;;;;5017406;28;19933;-67
2022/08/21 11:30:53;;;;;;;;;;;25.10;99.90;;;;;;5018096;28;19926;-69
2022/08/21 11:33:28;;;;;;;;;;;25.60;99.90;;;;;;5001853;28;20543;-69
2022/08/21 11:36:03;;;;;;;;;;;26.70;99.90;;;;;;5003462;28;19929;-70
2022/08/21 11:38:35;;;;;;;;;;;28.90;99.90;;;;;;5004465;28;19933;-69
2022/08/21 11:41:17;;;;;;;;;;;30.90;99.90;;;;;;5030026;28;19929;-68
2022/08/21 11:43:45;;;;;;;;;;;31.80;99.90;;;;;;5027119;28;19926;-69
2022/08/21 11:46:15;;;;;;;;;;;32.70;99.90;;;;;;5005965;28;19929;-69
2022/08/21 11:48:47;;;;;;;;;;;33.50;99.90;;;;;;5003451;28;19929;-69
2022/08/21 11:51:19;;;;;;;;;;;35.30;99.90;;;;;;5030027;28;19925;-70
2022/08/21 11:53:51;;;;;;;;;;;35.50;99.90;;;;;;5023970;28;19925;-67
2022/08/21 11:56:20;;;;;;;;;;;36.60;99.90;;;;;;5037344;28;19925;-69
2022/08/21 11:58:49;;;;;;;;;;;34.20;99.90;;;;;;5039149;28;19932;-66
2022/08/21 12:01:18;;;;;;;;;;;33.50;99.90;;;;;;5038145;28;19928;-68
2022/08/21 12:03:52;;;;;;;;;;;32.60;99.90;;;;;;5010886;28;20301;-66
2022/08/21 12:06:29;;;;;;;;;;;33.00;99.90;;;;;;5003151;28;19933;-71
2022/08/21 12:08:59;;;;;;;;;;;34.00;99.90;;;;;;5024192;28;19932;-69
2022/08/21 12:11:26;;;;;;;;;;;33.60;99.90;;;;;;5027365;28;19960;-73
2022/08/21 12:13:55;;;;;;;;;;;32.80;99.90;;;;;;5002674;28;19926;-69
2022/08/21 12:16:29;;;;;;;;;;;32.80;99.90;;;;;;5001883;28;19930;-69
2022/08/21 12:19:03;;;;;;;;;;;34.00;99.90;;;;;;5018216;28;19925;-68
2022/08/21 12:21:32;;;;;;;;;;;34.60;99.90;;;;;;5025841;28;19926;-70
2022/08/21 12:24:15;;;;;;;;;;;33.90;99.90;;;;;;5007407;28;19925;-66
2022/08/21 12:26:49;;;;;;;;;;;33.50;99.90;;;;;;5026298;28;19929;-67
2022/08/21 12:29:17;;;;;;;;;;;32.30;99.90;;;;;;5020532;28;19932;-68
2022/08/21 12:32:02;;;;;;;;;;;32.80;99.90;;;;;;5018137;28;19957;-69
2022/08/21 12:34:33;;;;;;;;;;;33.40;99.90;;;;;;5010920;28;19925;-69
2022/08/21 12:37:03;;;;;;;;;;;32.50;99.90;;;;;;5007185;28;19940;-69
2022/08/21 12:39:31;;;;;;;;;;;32.30;99.90;;;;;;5031690;28;19926;-69
2022/08/21 12:42:00;;;;;;;;;;;32.80;99.90;;;;;;5027716;28;19926;-70
2022/08/21 12:44:31;;;;;;;;;;;33.80;99.90;;;;;;5032418;28;19926;-69
2022/08/21 12:46:59;;;;;;;;;;;32.90;99.90;;;;;;5007175;28;19980;-70
2022/08/21 12:49:28;;;;;;;;;;;33.10;99.90;;;;;;5031549;28;19940;-70
2022/08/21 12:51:56;;;;;;;;;;;33.60;99.90;;;;;;5004743;28;19933;-70
2022/08/21 12:54:27;;;;;;;;;;;33.60;99.60;;;;;;5024845;28;19929;-68
2022/08/21 12:56:57;;;;;;;;;;;33.10;99.50;;;;;;5024606;28;19979;-70
2022/08/21 12:59:24;;;;;;;;;;;34.30;99.90;;;;;;5019038;28;20293;-69
2022/08/21 13:01:54;;;;;;;;;;;34.70;98.80;;;;;;5004269;28;19925;-77
2022/08/21 13:04:23;;;;;;;;;;;34.90;99.20;;;;;;5019724;28;19925;-70
2022/08/21 13:06:52;;;;;;;;;;;34.90;98.50;;;;;;5005449;28;19925;-70
2022/08/21 13:09:21;;;;;;;;;;;35.80;99.20;;;;;;5001861;28;19987;-68
2022/08/21 13:11:49;;;;;;;;;;;35.20;97.20;;;;;;5028028;28;19932;-72
2022/08/21 13:14:21;;;;;;;;;;;34.40;98.00;;;;;;5017810;28;19929;-71
2022/08/21 13:16:48;;;;;;;;;;;34.70;97.60;;;;;;5029351;28;19931;-71
2022/08/21 13:19:20;;;;;;;;;;;34.80;97.70;;;;;;5029154;28;19972;-72
2022/08/21 13:21:46;;;;;;;;;;;35.00;96.80;;;;;;5019872;28;19926;-72
2022/08/21 13:24:15;;;;;;;;;;;34.40;96.10;;;;;;5032036;28;19929;-73
2022/08/21 13:26:42;;;;;;;;;;;33.60;96.80;;;;;;5026903;28;19926;-71
2022/08/21 13:29:12;;;;;;;;;;;32.80;96.90;;;;;;5021506;28;19925;-73
2022/08/21 13:31:42;;;;;;;;;;;32.60;97.50;;;;;;5017492;28;20005;-72
2022/08/21 13:34:10;;;;;;;;;;;32.10;98.10;;;;;;5006678;28;19932;-70
2022/08/21 13:36:38;;;;;;;;;;;31.50;98.80;;;;;;5025507;28;19925;-71
2022/08/21 13:39:05;;;;;;;;;;;31.00;99.20;;;;;;5004239;28;19936;-72
2022/08/21 13:41:34;;;;;;;;;;;31.10;98.90;;;;;;5019532;28;20282;-72
2022/08/21 13:44:03;;;;;;;;;;;30.60;98.80;;;;;;5002076;28;19926;-71
2022/08/21 13:46:33;;;;;;;;;;;30.10;99.50;;;;;;5027302;28;19926;-69
2022/08/21 13:49:00;;;;;;;;;;;29.00;99.90;;;;;;5004228;28;19925;-72
2022/08/21 13:51:27;;;;;;;;;;;28.20;99.90;;;;;;5040039;28;19929;-72
2022/08/21 13:53:55;;;;;;;;;;;28.70;99.90;;;;;;5015723;28;19929;-73
2022/08/21 13:56:23;;;;;;;;;;;29.10;99.90;;;;;;5024913;28;19965;-73
2022/08/21 13:58:50;;;;;;;;;;;29.00;99.90;;;;;;5002231;28;20413;-72
2022/08/21 14:01:19;;;;;;;;;;;28.60;99.90;;;;;;5016405;28;20339;-72
2022/08/21 14:03:48;;;;;;;;;;;28.10;99.90;;;;;;5027380;28;19929;-72
2022/08/21 14:06:17;;;;;;;;;;;27.70;99.90;;;;;;5019502;28;19932;-73
2022/08/21 14:08:50;;;;;;;;;;;27.80;99.90;;;;;;5022332;28;19929;-73
2022/08/21 14:11:17;;;;;;;;;;;28.00;99.90;;;;;;5011984;28;20025;-72
2022/08/21 14:13:45;;;;;;;;;;;28.20;99.90;;;;;;5008771;28;19930;-73
2022/08/21 14:16:15;;;;;;;;;;;27.60;99.90;;;;;;5017148;28;19926;-73
2022/08/21 14:18:46;;;;;;;;;;;27.30;99.90;;;;;;5034107;28;20028;-72
2022/08/21 14:21:24;;;;;;;;;;;26.90;99.90;;;;;;5005688;28;19926;-72
2022/08/21 14:23:59;;;;;;;;;;;26.70;99.90;;;;;;5018869;28;19952;-72
2022/08/21 14:26:26;;;;;;;;;;;26.60;99.90;;;;;;5027671;28;19926;-73